sensor_id;sensor_type;location;lat;lon;timestamp;pressure;altitude;pressure_sealevel;temperature;humidity
34185;BME280;20454;48.100;11.776;2023-03-18T00:00:39;95027.44;;;4.20;98.52
34185;BME280;20454;48.100;11.776;2023-03-18T00:03:05;95024.09;;;4.23;98.77
34185;BME280;20454;48.100;11.776;2023-03-18T00:05:32;95029.28;;;4.24;98.45
34185;BME280;20454;48.100;11.776;2023-03-18T00:07:59;95030.41;;;4.23;98.61
34185;BME280;20454;48.100;11.776;2023-03-18T00:10:25;95028.19;;;4.25;98.30
34185;BME280;20454;48.100;11.776;2023-03-18T00:12:51;95024.38;;;4.21;98.18
34185;BME280;20454;48.100;11.776;2023-03-18T00:15:18;95034.88;;;4.19;97.88
34185;BME280;20454;48.100;11.776;2023-03-18T00:17:45;95029.44;;;4.14;97.92
34185;BME280;20454;48.100;11.776;2023-03-18T00:20:12;95024.81;;;4.10;97.75
34185;BME280;20454;48.100;11.776;2023-03-18T00:22:38;95033.34;;;4.08;97.60
34185;BME280;20454;48.100;11.776;2023-03-18T00:25:06;95038.03;;;4.08;97.71
34185;BME280;20454;48.100;11.776;2023-03-18T00:27:32;95041.09;;;4.06;97.62
34185;BME280;20454;48.100;11.776;2023-03-18T00:29:59;95032.84;;;4.06;97.81
34185;BME280;20454;48.100;11.776;2023-03-18T00:32:25;95033.72;;;4.02;97.68
34185;BME280;20454;48.100;11.776;2023-03-18T00:34:52;95040.03;;;4.02;97.88
34185;BME280;20454;48.100;11.776;2023-03-18T00:37:18;95046.66;;;4.01;97.56
34185;BME280;20454;48.100;11.776;2023-03-18T00:39:59;95046.13;;;3.99;97.49
34185;BME280;20454;48.100;11.776;2023-03-18T00:42:32;95038.69;;;4.00;97.53
34185;BME280;20454;48.100;11.776;2023-03-18T00:45:07;95040.38;;;3.96;97.33
34185;BME280;20454;48.100;11.776;2023-03-18T00:47:33;95046.19;;;3.94;97.55
34185;BME280;20454;48.100;11.776;2023-03-18T00:50:00;95052.19;;;3.96;97.42
34185;BME280;20454;48.100;11.776;2023-03-18T00:52:26;95054.44;;;3.94;97.62
34185;BME280;20454;48.100;11.776;2023-03-18T00:54:51;95045.34;;;3.94;97.38
34185;BME280;20454;48.100;11.776;2023-03-18T00:57:17;95048.09;;;3.94;97.45
34185;BME280;20454;48.100;11.776;2023-03-18T00:59:43;95048.09;;;3.94;97.40
34185;BME280;20454;48.100;11.776;2023-03-18T01:02:09;95049.22;;;3.93;97.30
34185;BME280;20454;48.100;11.776;2023-03-18T01:04:35;95039.13;;;3.83;97.17
34185;BME280;20454;48.100;11.776;2023-03-18T01:07:00;95049.56;;;3.86;97.10
34185;BME280;20454;48.100;11.776;2023-03-18T01:09:27;95050.13;;;3.83;97.11
34185;BME280;20454;48.100;11.776;2023-03-18T01:11:52;95045.75;;;3.82;97.44
34185;BME280;20454;48.100;11.776;2023-03-18T01:14:18;95054.00;;;3.82;97.59
34185;BME280;20454;48.100;11.776;2023-03-18T01:16:44;95054.31;;;3.81;97.27
34185;BME280;20454;48.100;11.776;2023-03-18T01:19:12;95063.97;;;3.78;97.48
34185;BME280;20454;48.100;11.776;2023-03-18T01:21:38;95053.84;;;3.74;97.50
34185;BME280;20454;48.100;11.776;2023-03-18T01:24:04;95051.38;;;3.72;97.33
34185;BME280;20454;48.100;11.776;2023-03-18T01:26:30;95057.69;;;3.73;97.28
34185;BME280;20454;48.100;11.776;2023-03-18T01:28:56;95046.75;;;3.68;97.55
34185;BME280;20454;48.100;11.776;2023-03-18T01:31:21;95042.69;;;3.60;97.86
34185;BME280;20454;48.100;11.776;2023-03-18T01:33:48;95052.25;;;3.68;97.91
34185;BME280;20454;48.100;11.776;2023-03-18T01:36:14;95053.94;;;3.64;98.10
34185;BME280;20454;48.100;11.776;2023-03-18T01:38:40;95052.81;;;3.65;98.26
34185;BME280;20454;48.100;11.776;2023-03-18T01:41:06;95055.88;;;3.63;98.34
34185;BME280;20454;48.100;11.776;2023-03-18T01:43:35;95054.75;;;3.64;98.35
34185;BME280;20454;48.100;11.776;2023-03-18T01:46:33;95051.47;;;3.62;98.74
34185;BME280;20454;48.100;11.776;2023-03-18T01:48:48;95046.78;;;3.63;98.82
34185;BME280;20454;48.100;11.776;2023-03-18T01:51:16;95042.16;;;3.58;98.91
34185;BME280;20454;48.100;11.776;2023-03-18T01:53:44;95045.47;;;3.55;99.00
34185;BME280;20454;48.100;11.776;2023-03-18T01:56:11;95054.53;;;3.61;98.89
34185;BME280;20454;48.100;11.776;2023-03-18T01:58:41;95059.94;;;3.66;99.48
34185;BME280;20454;48.100;11.776;2023-03-18T02:01:11;95055.88;;;3.63;99.36
34185;BME280;20454;48.100;11.776;2023-03-18T02:03:39;95058.91;;;3.62;99.33
34185;BME280;20454;48.100;11.776;2023-03-18T02:06:06;95057.28;;;3.61;99.48
34185;BME280;20454;48.100;11.776;2023-03-18T02:08:31;95053.94;;;3.64;100.00
34185;BME280;20454;48.100;11.776;2023-03-18T02:10:57;95067.59;;;3.74;100.00
34185;BME280;20454;48.100;11.776;2023-03-18T02:13:23;95068.91;;;3.76;100.00
34185;BME280;20454;48.100;11.776;2023-03-18T02:15:53;95054.13;;;3.72;100.00
34185;BME280;20454;48.100;11.776;2023-03-18T02:18:27;95068.88;;;3.81;100.00
34185;BME280;20454;48.100;11.776;2023-03-18T02:21:17;95070.22;;;3.84;100.00
34185;BME280;20454;48.100;11.776;2023-03-18T02:26:46;95069.03;;;3.95;100.00
34185;BME280;20454;48.100;11.776;2023-03-18T02:29:14;95063.81;;;3.93;100.00
34185;BME280;20454;48.100;11.776;2023-03-18T02:31:42;95057.19;;;3.94;100.00
34185;BME280;20454;48.100;11.776;2023-03-18T02:34:09;95065.97;;;3.96;99.76
34185;BME280;20454;48.100;11.776;2023-03-18T02:36:35;95074.22;;;3.96;99.94
34185;BME280;20454;48.100;11.776;2023-03-18T02:39:02;95066.56;;;3.93;100.00
34185;BME280;20454;48.100;11.776;2023-03-18T02:41:32;95074.16;;;4.01;100.00
34185;BME280;20454;48.100;11.776;2023-03-18T02:43:58;95072.53;;;4.00;99.81
34185;BME280;20454;48.100;11.776;2023-03-18T02:46:32;95074.91;;;4.07;99.38
34185;BME280;20454;48.100;11.776;2023-03-18T02:49:01;95069.50;;;4.02;99.28
34185;BME280;20454;48.100;11.776;2023-03-18T02:51:28;95065.06;;;4.01;99.69
34185;BME280;20454;48.100;11.776;2023-03-18T02:53:56;95076.00;;;4.11;99.51
34185;BME280;20454;48.100;11.776;2023-03-18T02:56:23;95079.53;;;4.11;99.58
34185;BME280;20454;48.100;11.776;2023-03-18T02:58:49;95080.31;;;4.17;99.81
34185;BME280;20454;48.100;11.776;2023-03-18T07:02:34;95179.81;;;6.55;93.94
34185;BME280;20454;48.100;11.776;2023-03-18T07:05:01;95179.63;;;6.65;93.11
34185;BME280;20454;48.100;11.776;2023-03-18T07:07:27;95180.78;;;6.78;92.75
34185;BME280;20454;48.100;11.776;2023-03-18T07:09:53;95182.41;;;6.92;92.43
34185;BME280;20454;48.100;11.776;2023-03-18T07:12:19;95178.09;;;7.00;90.45
34185;BME280;20454;48.100;11.776;2023-03-18T07:14:44;95173.91;;;7.16;88.89
34185;BME280;20454;48.100;11.776;2023-03-18T07:17:11;95177.78;;;7.28;88.13
34185;BME280;20454;48.100;11.776;2023-03-18T07:19:39;95175.19;;;7.45;86.86
34185;BME280;20454;48.100;11.776;2023-03-18T07:22:05;95173.72;;;7.61;85.72
34185;BME280;20454;48.100;11.776;2023-03-18T07:24:30;95177.06;;;7.72;85.21
34185;BME280;20454;48.100;11.776;2023-03-18T07:26:56;95181.13;;;7.88;83.07
34185;BME280;20454;48.100;11.776;2023-03-18T07:29:22;95181.56;;;8.03;81.90
34185;BME280;20454;48.100;11.776;2023-03-18T07:31:47;95182.34;;;8.17;80.81
34185;BME280;20454;48.100;11.776;2023-03-18T07:34:13;95180.34;;;8.31;80.06
34185;BME280;20454;48.100;11.776;2023-03-18T07:36:40;95187.97;;;8.48;79.05
34185;BME280;20454;48.100;11.776;2023-03-18T07:39:07;95181.69;;;8.64;77.55
34185;BME280;20454;48.100;11.776;2023-03-18T07:41:34;95183.28;;;8.87;76.75
34185;BME280;20454;48.100;11.776;2023-03-18T07:44:00;95180.06;;;9.02;76.72
34185;BME280;20454;48.100;11.776;2023-03-18T07:46:25;95180.28;;;9.23;75.91
34185;BME280;20454;48.100;11.776;2023-03-18T07:48:52;95183.63;;;9.42;75.15
34185;BME280;20454;48.100;11.776;2023-03-18T07:51:19;95169.28;;;9.56;74.30
34185;BME280;20454;48.100;11.776;2023-03-18T07:53:46;95173.06;;;9.77;73.64
34185;BME280;20454;48.100;11.776;2023-03-18T07:56:12;95171.78;;;9.92;73.71
34185;BME280;20454;48.100;11.776;2023-03-18T07:58:38;95174.91;;;10.16;72.99
34185;BME280;20454;48.100;11.776;2023-03-18T15:14:49;94919.97;;;18.85;37.80
34185;BME280;20454;48.100;11.776;2023-03-18T15:17:15;94915.94;;;18.86;36.82
34185;BME280;20454;48.100;11.776;2023-03-18T15:19:42;94916.66;;;18.76;37.39
34185;BME280;20454;48.100;11.776;2023-03-18T15:22:08;94917.94;;;18.82;37.42
34185;BME280;20454;48.100;11.776;2023-03-18T15:24:36;94924.25;;;18.72;38.15
34185;BME280;20454;48.100;11.776;2023-03-18T15:27:17;94916.53;;;18.62;37.09
34185;BME280;20454;48.100;11.776;2023-03-18T15:32:44;94924.75;;;18.41;38.75
34185;BME280;20454;48.100;11.776;2023-03-18T15:35:23;94927.13;;;18.36;38.88
34185;BME280;20454;48.100;11.776;2023-03-18T15:38:10;94926.63;;;18.30;39.33
34185;BME280;20454;48.100;11.776;2023-03-18T15:40:51;94925.31;;;18.24;39.86
34185;BME280;20454;48.100;11.776;2023-03-18T15:43:29;94927.34;;;18.24;39.42
34185;BME280;20454;48.100;11.776;2023-03-18T15:45:59;94929.34;;;18.23;40.16
34185;BME280;20454;48.100;11.776;2023-03-18T15:51:24;94914.78;;;18.18;39.87
34185;BME280;20454;48.100;11.776;2023-03-18T15:53:50;94929.22;;;18.13;39.29
34185;BME280;20454;48.100;11.776;2023-03-18T15:56:22;94938.22;;;17.92;39.95
34185;BME280;20454;48.100;11.776;2023-03-18T15:59:05;94936.41;;;17.77;40.42
34185;BME280;20454;48.100;11.776;2023-03-18T16:01:33;94927.72;;;17.60;41.10
34185;BME280;20454;48.100;11.776;2023-03-18T16:04:00;94921.91;;;17.46;42.18
34185;BME280;20454;48.100;11.776;2023-03-18T16:06:26;94928.69;;;17.45;41.16
34185;BME280;20454;48.100;11.776;2023-03-18T16:08:53;94931.66;;;17.29;41.26
34185;BME280;20454;48.100;11.776;2023-03-18T16:11:18;94928.84;;;17.29;41.46
34185;BME280;20454;48.100;11.776;2023-03-18T16:13:45;94925.41;;;17.17;41.62
34185;BME280;20454;48.100;11.776;2023-03-18T16:16:34;94925.63;;;17.05;41.82
34185;BME280;20454;48.100;11.776;2023-03-18T16:19:01;94930.31;;;16.97;41.71
34185;BME280;20454;48.100;11.776;2023-03-18T16:21:26;94929.84;;;16.92;42.25
34185;BME280;20454;48.100;11.776;2023-03-18T16:23:52;94945.31;;;16.82;42.07
34185;BME280;20454;48.100;11.776;2023-03-18T16:26:19;94948.69;;;16.69;42.68
34185;BME280;20454;48.100;11.776;2023-03-18T16:28:44;94945.69;;;16.58;42.53
34185;BME280;20454;48.100;11.776;2023-03-18T16:31:11;94943.88;;;16.47;42.71
34185;BME280;20454;48.100;11.776;2023-03-18T16:33:37;94944.03;;;16.35;43.49
34185;BME280;20454;48.100;11.776;2023-03-18T16:36:03;94955.06;;;16.24;43.92
34185;BME280;20454;48.100;11.776;2023-03-18T16:38:30;94952.41;;;16.12;44.74
34185;BME280;20454;48.100;11.776;2023-03-18T16:40:56;94944.94;;;16.01;44.52
34185;BME280;20454;48.100;11.776;2023-03-18T16:43:27;94948.78;;;15.93;45.46
34185;BME280;20454;48.100;11.776;2023-03-18T16:45:57;94956.25;;;15.85;45.20
34185;BME280;20454;48.100;11.776;2023-03-18T16:48:24;94945.97;;;15.74;45.60
34185;BME280;20454;48.100;11.776;2023-03-18T16:50:50;94953.06;;;15.68;46.01
34185;BME280;20454;48.100;11.776;2023-03-18T16:53:26;94962.94;;;15.62;45.67
34185;BME280;20454;48.100;11.776;2023-03-18T16:56:08;94970.38;;;15.54;46.34
34185;BME280;20454;48.100;11.776;2023-03-18T16:58:37;94985.13;;;15.51;47.28
34185;BME280;20454;48.100;11.776;2023-03-18T17:01:04;94986.59;;;15.45;47.43
34185;BME280;20454;48.100;11.776;2023-03-18T17:03:33;94990.13;;;15.42;47.62
34185;BME280;20454;48.100;11.776;2023-03-18T17:05:59;94991.69;;;15.40;47.89
34185;BME280;20454;48.100;11.776;2023-03-18T17:08:24;94990.78;;;15.36;48.00
34185;BME280;20454;48.100;11.776;2023-03-18T17:10:53;94991.00;;;15.31;48.06
34185;BME280;20454;48.100;11.776;2023-03-18T17:13:23;94998.44;;;15.23;48.28
34185;BME280;20454;48.100;11.776;2023-03-18T17:15:50;94988.97;;;15.12;48.80
34185;BME280;20454;48.100;11.776;2023-03-18T17:18:18;94992.69;;;15.01;48.75
34185;BME280;20454;48.100;11.776;2023-03-18T17:20:45;94999.19;;;14.89;49.37
34185;BME280;20454;48.100;11.776;2023-03-18T17:23:16;95004.44;;;14.76;49.25
34185;BME280;20454;48.100;11.776;2023-03-18T17:25:54;95002.78;;;14.59;49.35
34185;BME280;20454;48.100;11.776;2023-03-18T17:28:30;95005.13;;;14.42;50.34
34185;BME280;20454;48.100;11.776;2023-03-18T17:30:57;95006.88;;;14.19;51.10
34185;BME280;20454;48.100;11.776;2023-03-18T17:33:24;95010.53;;;14.07;51.90
34185;BME280;20454;48.100;11.776;2023-03-18T17:35:51;95001.97;;;13.88;52.99
34185;BME280;20454;48.100;11.776;2023-03-18T17:38:17;95017.16;;;13.75;53.30
34185;BME280;20454;48.100;11.776;2023-03-18T17:40:43;95019.41;;;13.58;54.13
34185;BME280;20454;48.100;11.776;2023-03-18T17:45:43;95013.16;;;13.25;55.43
34185;BME280;20454;48.100;11.776;2023-03-18T17:50:42;95022.97;;;12.95;56.42
34185;BME280;20454;48.100;11.776;2023-03-18T17:53:22;95024.44;;;12.80;56.85
34185;BME280;20454;48.100;11.776;2023-03-18T17:55:49;95018.38;;;12.66;57.48
34185;BME280;20454;48.100;11.776;2023-03-18T17:58:19;95007.56;;;12.53;58.32
34185;BME280;20454;48.100;11.776;2023-03-18T18:00:46;94999.50;;;12.39;58.96
34185;BME280;20454;48.100;11.776;2023-03-18T18:03:21;94999.47;;;12.27;59.08
34185;BME280;20454;48.100;11.776;2023-03-18T18:05:50;95005.34;;;12.14;59.69
34185;BME280;20454;48.100;11.776;2023-03-18T18:08:16;95005.69;;;12.00;60.15
34185;BME280;20454;48.100;11.776;2023-03-18T18:10:43;95006.09;;;11.90;60.81
34185;BME280;20454;48.100;11.776;2023-03-18T18:13:14;95002.91;;;11.80;61.56
34185;BME280;20454;48.100;11.776;2023-03-18T18:15:41;95001.34;;;11.70;61.84
34185;BME280;20454;48.100;11.776;2023-03-18T18:18:13;95011.91;;;11.65;62.81
34185;BME280;20454;48.100;11.776;2023-03-18T18:20:42;95013.41;;;11.54;62.96
34185;BME280;20454;48.100;11.776;2023-03-18T18:23:09;95006.31;;;11.44;64.36
34185;BME280;20454;48.100;11.776;2023-03-18T18:25:41;95009.34;;;11.31;64.61
34185;BME280;20454;48.100;11.776;2023-03-18T18:28:21;95013.00;;;11.23;64.83
34185;BME280;20454;48.100;11.776;2023-03-18T18:30:48;95004.09;;;11.09;65.78
34185;BME280;20454;48.100;11.776;2023-03-18T18:33:14;95017.28;;;11.00;65.99
34185;BME280;20454;48.100;11.776;2023-03-18T18:35:40;95013.69;;;10.91;66.89
34185;BME280;20454;48.100;11.776;2023-03-18T18:38:07;95022.25;;;10.86;67.68
34185;BME280;20454;48.100;11.776;2023-03-18T18:40:34;95024.75;;;10.79;68.46
34185;BME280;20454;48.100;11.776;2023-03-18T18:43:00;95017.59;;;10.69;68.79
34185;BME280;20454;48.100;11.776;2023-03-18T18:45:26;95022.88;;;10.62;69.44
34185;BME280;20454;48.100;11.776;2023-03-18T18:47:54;95025.34;;;10.55;69.92
34185;BME280;20454;48.100;11.776;2023-03-18T18:50:26;95025.38;;;10.47;70.30
34185;BME280;20454;48.100;11.776;2023-03-18T22:05:02;95030.66;;;6.77;87.69
34185;BME280;20454;48.100;11.776;2023-03-18T22:07:29;95046.84;;;6.84;87.52
34185;BME280;20454;48.100;11.776;2023-03-18T22:09:56;95048.78;;;6.83;88.03
34185;BME280;20454;48.100;11.776;2023-03-18T22:12:24;95049.41;;;6.80;88.17
34185;BME280;20454;48.100;11.776;2023-03-18T22:14:50;95044.81;;;6.76;88.08
34185;BME280;20454;48.100;11.776;2023-03-18T22:17:30;95041.03;;;6.72;87.97
34185;BME280;20454;48.100;11.776;2023-03-18T22:19:57;95045.56;;;6.68;88.72
34185;BME280;20454;48.100;11.776;2023-03-18T22:22:27;95034.59;;;6.63;88.84
34185;BME280;20454;48.100;11.776;2023-03-18T22:24:54;95045.03;;;6.66;88.96
34185;BME280;20454;48.100;11.776;2023-03-18T22:29:46;95042.06;;;6.62;88.85
34185;BME280;20454;48.100;11.776;2023-03-18T22:32:40;95046.78;;;6.62;89.25
34185;BME280;20454;48.100;11.776;2023-03-18T22:35:24;95058.13;;;6.60;89.58
34185;BME280;20454;48.100;11.776;2023-03-18T22:37:51;95056.00;;;6.57;89.87
34185;BME280;20454;48.100;11.776;2023-03-18T22:40:40;95046.88;;;6.57;89.74
34185;BME280;20454;48.100;11.776;2023-03-18T22:43:27;95048.81;;;6.56;89.46
34185;BME280;20454;48.100;11.776;2023-03-18T22:45:54;95052.72;;;6.55;89.37
34185;BME280;20454;48.100;11.776;2023-03-18T22:48:20;95059.56;;;6.58;89.33
34185;BME280;20454;48.100;11.776;2023-03-18T22:50:46;95056.50;;;6.59;89.35
34185;BME280;20454;48.100;11.776;2023-03-18T22:53:18;95051.38;;;6.53;89.49
34185;BME280;20454;48.100;11.776;2023-03-18T22:55:45;95048.13;;;6.51;89.18
34185;BME280;20454;48.100;11.776;2023-03-18T22:58:20;95058.22;;;6.55;89.48
34185;BME280;20454;48.100;11.776;2023-03-18T23:00:46;95053.84;;;6.54;89.43
34185;BME280;20454;48.100;11.776;2023-03-18T23:03:21;95055.47;;;6.55;89.57
34185;BME280;20454;48.100;11.776;2023-03-18T23:05:48;95054.13;;;6.53;89.40
34185;BME280;20454;48.100;11.776;2023-03-18T23:08:15;95050.06;;;6.50;89.58
34185;BME280;20454;48.100;11.776;2023-03-18T23:10:41;95050.56;;;6.52;89.61
34185;BME280;20454;48.100;11.776;2023-03-18T23:13:16;95058.66;;;6.49;89.51
34185;BME280;20454;48.100;11.776;2023-03-18T23:15:42;95058.34;;;6.50;89.17
34185;BME280;20454;48.100;11.776;2023-03-18T23:18:13;95053.94;;;6.49;88.93
34185;BME280;20454;48.100;11.776;2023-03-18T23:20:41;95049.25;;;6.50;88.89
34185;BME280;20454;48.100;11.776;2023-03-18T23:23:06;95053.34;;;6.52;88.56
34185;BME280;20454;48.100;11.776;2023-03-18T23:25:32;95061.31;;;6.54;88.76
34185;BME280;20454;48.100;11.776;2023-03-18T23:27:58;95056.91;;;6.53;88.83
34185;BME280;20454;48.100;11.776;2023-03-18T23:30:23;95060.78;;;6.52;89.14
34185;BME280;20454;48.100;11.776;2023-03-18T23:32:49;95057.72;;;6.53;88.41
34185;BME280;20454;48.100;11.776;2023-03-18T23:35:15;95060.00;;;6.51;89.09
34185;BME280;20454;48.100;11.776;2023-03-18T23:37:41;95058.97;;;6.47;89.13
34185;BME280;20454;48.100;11.776;2023-03-18T23:40:07;95058.56;;;6.40;89.21
34185;BME280;20454;48.100;11.776;2023-03-18T23:42:33;95055.78;;;6.40;89.46
34185;BME280;20454;48.100;11.776;2023-03-18T23:44:58;95070.53;;;6.36;89.53
34185;BME280;20454;48.100;11.776;2023-03-18T23:47:24;95071.66;;;6.35;89.41
34185;BME280;20454;48.100;11.776;2023-03-18T23:49:50;95061.81;;;6.29;89.42
34185;BME280;20454;48.100;11.776;2023-03-18T23:52:15;95063.47;;;6.30;89.64
34185;BME280;20454;48.100;11.776;2023-03-18T23:54:41;95079.81;;;6.26;89.72
34185;BME280;20454;48.100;11.776;2023-03-18T23:57:08;95068.06;;;6.21;89.90
34185;BME280;20454;48.100;11.776;2023-03-18T23:59:35;95069.78;;;6.17;90.25
